Windom, MN

8:17 PM CDT on October 16, 2017 (GMT -0500)
Windom Municipal

Weather History for KMWM - June, 2014

Change the Weather History Date:

Sunday, June 29, 2014

  Actual Average Record
Temperature  
Mean Temperature 72 °F -  
Max Temperature 82 °F 84 °F 101 °F (1988)
Min Temperature 62 °F 60 °F 46 °F (2007)
Cooling Degree Days 7    
Growing Degree Days 22 (Base 50)    
Moisture  
Dew Point 59 °F    
Average Humidity 65    
Maximum Humidity 88    
Minimum Humidity 37    
Precipitation  
Precipitation 0.00 in - - ()
Sea Level Pressure  
Sea Level Pressure 29.77 in    
Wind  
Wind Speed 9 mph (SSW)    
Max Wind Speed 18 mph    
Max Gust Speed 26 mph    
Visibility 10 miles    
Events Rain    
Averages and records for this station are not official NWS values.
T = Trace of Precipitation, MM = Missing Value Source: NWS Daily Summary

Daily Weather History Graph

Daily Weather History Graph

Search for Another Location

Airport or City:

Trip Planner

Search our weather history database for the weather conditions in past years. The results will help you decide how hot, cold, wet, or windy it might be!

Date:

Astronomy

Jun. 29, 2014 Rise Set
Actual Time 5:40 AM CDT 9:06 PM CDT
Civil Twilight 5:04 AM CDT 9:43 PM CDT
Nautical Twilight 4:17 AM CDT 10:30 PM CDT
Astronomical Twilight 3:17 AM CDT 11:29 PM CDT
Moon 8:05 AM CDT (6/29) 10:21 PM CDT (6/29)
Length of Visible Light 16h 38m
Length of Day
15h 26m
Waxing Crescent, 5% of the Moon is Illuminated
Jun 29
Waxing Crescent
Jul 5
First Quarter
Jul 12
Full
Jul 18
Last Quarter
Jul 26
New

Hourly Weather History & Observations

Time (CDT) Temp. Heat Index Dew Point Humidity Pressure Visibility Wind Dir Wind Speed Gust Speed Precip Events Conditions
12:13 AM 64.4 °F - 59.0 °F 83% 29.77 in 10.0 mi SSW 8.1 mph - N/A   Clear
12:33 AM 64.4 °F - 59.0 °F 83% 29.77 in 10.0 mi SSW 6.9 mph - N/A   Clear
12:54 AM 64.4 °F - 59.0 °F 83% 29.77 in 10.0 mi South 6.9 mph - N/A   Clear
1:13 AM 64.4 °F - 59.0 °F 83% 29.78 in 10.0 mi SSW 10.4 mph - N/A   Clear
1:33 AM 64.4 °F - 59.0 °F 83% 29.79 in 10.0 mi SSW 10.4 mph - N/A   Clear
1:54 AM 64.4 °F - 57.2 °F 77% 29.78 in 10.0 mi SSW 9.2 mph - N/A   Clear
2:13 AM 64.4 °F - 57.2 °F 77% 29.77 in 10.0 mi SSW 9.2 mph - N/A   Clear
2:33 AM 62.6 °F - 57.2 °F 82% 29.76 in 10.0 mi SSW 3.5 mph - N/A   Clear
2:53 AM 62.6 °F - 57.2 °F 82% 29.77 in 10.0 mi SW 8.1 mph - N/A   Scattered Clouds
3:13 AM 62.6 °F - 57.2 °F 82% 29.77 in 10.0 mi SSW 4.6 mph - N/A   Scattered Clouds
3:34 AM 62.6 °F - 57.2 °F 82% 29.78 in 10.0 mi SSW 4.6 mph - N/A   Clear
3:53 AM 62.6 °F - 57.2 °F 82% 29.77 in 10.0 mi SSW 3.5 mph - N/A   Clear
4:13 AM 62.6 °F - 57.2 °F 82% 29.76 in 10.0 mi SSW 5.8 mph - N/A   Clear
4:33 AM 62.6 °F - 57.2 °F 82% 29.77 in 10.0 mi SSW 5.8 mph - N/A   Clear
4:53 AM 62.6 °F - 57.2 °F 82% 29.76 in 10.0 mi South 4.6 mph - N/A   Clear
5:14 AM 62.6 °F - 59.0 °F 88% 29.76 in 10.0 mi SSW 8.1 mph - N/A   Clear
5:33 AM 62.6 °F - 59.0 °F 88% 29.77 in 10.0 mi SSW 12.7 mph 17.3 mph N/A   Clear
5:53 AM 64.4 °F - 59.0 °F 83% 29.76 in 10.0 mi SW 17.3 mph 24.2 mph N/A Rain Light Rain
6:14 AM 66.2 °F - 59.0 °F 78% 29.77 in 10.0 mi WSW 10.4 mph 26.5 mph N/A   Clear
6:33 AM 64.4 °F - 59.0 °F 83% 29.78 in 10.0 mi SW 9.2 mph - N/A   Clear
6:53 AM 64.4 °F - 60.8 °F 88% 29.78 in 10.0 mi SSW 10.4 mph 20.7 mph N/A   Clear
7:14 AM 64.4 °F - 60.8 °F 88% 29.77 in 10.0 mi WSW 4.6 mph - N/A   Clear
7:33 AM 64.4 °F - 60.8 °F 88% 29.78 in 10.0 mi SW 5.8 mph - N/A   Clear
7:53 AM 66.2 °F - 60.8 °F 83% 29.80 in 10.0 mi SSW 9.2 mph - N/A   Clear
8:14 AM 68.0 °F - 59.0 °F 73% 29.79 in 10.0 mi SSW 10.4 mph - N/A   Clear
8:33 AM 69.8 °F - 59.0 °F 68% 29.79 in 10.0 mi SSW 10.4 mph - N/A   Clear
8:53 AM 69.8 °F - 59.0 °F 68% 29.80 in 10.0 mi South 13.8 mph 20.7 mph N/A   Clear
9:14 AM 71.6 °F - 60.8 °F 69% 29.80 in 10.0 mi SSW 11.5 mph - N/A   Clear
9:33 AM 71.6 °F - 59.0 °F 64% 29.80 in 10.0 mi SSW 17.3 mph 20.7 mph N/A   Clear
9:53 AM 73.4 °F - 60.8 °F 65% 29.80 in 10.0 mi South 15.0 mph - N/A   Clear
10:13 AM 73.4 °F - 60.8 °F 65% 29.81 in 10.0 mi South 16.1 mph 19.6 mph N/A   Clear
10:33 AM 73.4 °F - 62.6 °F 69% 29.80 in 10.0 mi SSW 16.1 mph 24.2 mph N/A   Clear
10:54 AM 75.2 °F - 62.6 °F 65% 29.80 in 10.0 mi SSW 16.1 mph 20.7 mph N/A   Clear
11:13 AM 75.2 °F - 64.4 °F 69% 29.80 in 10.0 mi SSW 15.0 mph 23.0 mph N/A   Clear
11:33 AM 75.2 °F - 64.4 °F 69% 29.81 in 10.0 mi SSW 13.8 mph 21.9 mph N/A   Scattered Clouds
11:54 AM 77.0 °F - 64.4 °F 65% 29.80 in 10.0 mi SSW 13.8 mph - N/A   Scattered Clouds
12:13 PM 77.0 °F - 64.4 °F 65% 29.81 in 10.0 mi SW 16.1 mph - N/A   Clear
12:33 PM 78.8 °F - 64.4 °F 61% 29.81 in 10.0 mi SSW 18.4 mph 21.9 mph N/A   Clear
12:54 PM 80.6 °F 82.3 °F 64.4 °F 58% 29.82 in 10.0 mi SSW 16.1 mph 20.7 mph N/A   Scattered Clouds
1:13 PM 80.6 °F 82.3 °F 64.4 °F 58% 29.81 in 10.0 mi South 16.1 mph 23.0 mph N/A   Clear
1:33 PM 80.6 °F 82.3 °F 64.4 °F 58% 29.81 in 10.0 mi SW 15.0 mph - N/A   Scattered Clouds
1:54 PM 80.6 °F 81.8 °F 62.6 °F 54% 29.80 in 10.0 mi SW 17.3 mph 25.3 mph N/A   Scattered Clouds
2:13 PM 80.6 °F 81.5 °F 60.8 °F 51% 29.80 in 10.0 mi SW 12.7 mph 24.2 mph N/A   Clear
2:33 PM 82.4 °F 82.5 °F 59.0 °F 45% 29.79 in 10.0 mi SW 15.0 mph 19.6 mph N/A   Clear
2:54 PM 82.4 °F 82.0 °F 57.2 °F 42% 29.78 in 10.0 mi WSW 15.0 mph - N/A   Clear
3:13 PM 82.4 °F 82.0 °F 57.2 °F 42% 29.77 in 10.0 mi WSW 11.5 mph - N/A   Clear
3:33 PM 82.4 °F 81.7 °F 55.4 °F 39% 29.76 in 10.0 mi SW 12.7 mph - N/A   Clear
3:54 PM 82.4 °F 82.0 °F 57.2 °F 42% 29.77 in 10.0 mi WSW 12.7 mph 19.6 mph N/A   Clear
4:13 PM 82.4 °F 82.0 °F 57.2 °F 42% 29.76 in 10.0 mi SW 8.1 mph - N/A   Clear
4:33 PM 82.4 °F 81.7 °F 55.4 °F 39% 29.75 in 10.0 mi WSW 10.4 mph 17.3 mph N/A   Clear
4:54 PM 82.4 °F 81.4 °F 53.6 °F 37% 29.75 in 10.0 mi SW 9.2 mph 17.3 mph N/A   Clear
5:13 PM 82.4 °F 81.7 °F 55.4 °F 39% 29.75 in 10.0 mi SW 10.4 mph - N/A   Clear
5:33 PM 82.4 °F 81.7 °F 55.4 °F 39% 29.75 in 10.0 mi WSW 9.2 mph - N/A   Clear
5:54 PM 82.4 °F 81.7 °F 55.4 °F 39% 29.75 in 10.0 mi SW 11.5 mph - N/A   Clear
6:13 PM 82.4 °F 81.7 °F 55.4 °F 39% 29.75 in 10.0 mi SW 10.4 mph - N/A   Clear
6:33 PM 82.4 °F 81.7 °F 55.4 °F 39% 29.75 in 10.0 mi SW 11.5 mph - N/A   Clear
6:54 PM 82.4 °F 82.0 °F 57.2 °F 42% 29.75 in 10.0 mi SW 9.2 mph - N/A   Clear
7:13 PM 80.6 °F 80.8 °F 57.2 °F 45% 29.75 in 10.0 mi SSW 8.1 mph - N/A   Clear
7:33 PM 80.6 °F 80.8 °F 57.2 °F 45% 29.75 in 10.0 mi SSW 8.1 mph - N/A   Clear
7:54 PM 80.6 °F 81.1 °F 59.0 °F 48% 29.75 in 10.0 mi SSW 6.9 mph - N/A   Clear
8:13 PM 78.8 °F - 60.8 °F 54% 29.75 in 10.0 mi SW 6.9 mph - N/A   Clear
8:33 PM 77.0 °F - 59.0 °F 54% 29.75 in 10.0 mi SW 6.9 mph - N/A   Clear
8:54 PM 75.2 °F - 60.8 °F 61% 29.75 in 10.0 mi SSW 5.8 mph - N/A   Clear
9:13 PM 73.4 °F - 60.8 °F 65% 29.75 in 10.0 mi SSW 8.1 mph - N/A   Clear
9:34 PM 73.4 °F - 60.8 °F 65% 29.76 in 10.0 mi SSW 5.8 mph - N/A   Clear
9:54 PM 71.6 °F - 60.8 °F 69% 29.77 in 10.0 mi SSW 6.9 mph - N/A   Clear
10:13 PM 71.6 °F - 60.8 °F 69% 29.77 in 10.0 mi SSW 5.8 mph - N/A   Clear
10:34 PM 71.6 °F - 60.8 °F 69% 29.76 in 10.0 mi SSW 8.1 mph - N/A   Clear
10:54 PM 69.8 °F - 60.8 °F 73% 29.75 in 10.0 mi SSW 6.9 mph - N/A   Clear
11:13 PM 69.8 °F - 59.0 °F 68% 29.75 in 10.0 mi South 4.6 mph - N/A   Clear
11:33 PM 69.8 °F - 59.0 °F 68% 29.75 in 10.0 mi South 3.5 mph - N/A   Clear
11:54 PM 68.0 °F - 60.8 °F 78% 29.75 in 10.0 mi Calm Calm - N/A   Clear